sensor_id;sensor_type;location;lat;lon;timestamp;pressure;altitude;pressure_sealevel;temperature;humidity
26436;BME280;15351;52.408;16.826;2023-01-25T00:00:51;103065.37;;;3.99;74.71
26436;BME280;15351;52.408;16.826;2023-01-25T00:03:28;103063.26;;;4.02;74.53
26436;BME280;15351;52.408;16.826;2023-01-25T00:05:59;103057.41;;;4.05;74.70
26436;BME280;15351;52.408;16.826;2023-01-25T00:08:27;103048.65;;;4.06;74.87
26436;BME280;15351;52.408;16.826;2023-01-25T00:10:53;103054.54;;;4.10;74.94
26436;BME280;15351;52.408;16.826;2023-01-25T00:13:20;103055.00;;;4.14;75.02
26436;BME280;15351;52.408;16.826;2023-01-25T00:15:46;103059.68;;;4.20;74.74
26436;BME280;15351;52.408;16.826;2023-01-25T00:18:13;103069.63;;;4.14;74.50
26436;BME280;15351;52.408;16.826;2023-01-25T00:20:40;103071.81;;;4.02;74.60
26436;BME280;15351;52.408;16.826;2023-01-25T00:23:06;103068.80;;;3.98;75.03
26436;BME280;15351;52.408;16.826;2023-01-25T00:25:32;103064.60;;;4.03;75.28
26436;BME280;15351;52.408;16.826;2023-01-25T00:27:59;103067.17;;;4.06;75.22
26436;BME280;15351;52.408;16.826;2023-01-25T00:30:25;103070.84;;;4.07;75.10
26436;BME280;15351;52.408;16.826;2023-01-25T00:33:31;103071.31;;;4.04;75.10
26436;BME280;15351;52.408;16.826;2023-01-25T00:35:55;103067.86;;;4.02;75.25
26436;BME280;15351;52.408;16.826;2023-01-25T00:38:34;103068.56;;;4.03;75.26
26436;BME280;15351;52.408;16.826;2023-01-25T00:41:03;103069.10;;;4.02;75.29
26436;BME280;15351;52.408;16.826;2023-01-25T00:43:29;103069.71;;;4.01;75.37
26436;BME280;15351;52.408;16.826;2023-01-25T00:46:01;103074.77;;;4.03;75.51
26436;BME280;15351;52.408;16.826;2023-01-25T00:48:29;103076.14;;;4.08;75.62
26436;BME280;15351;52.408;16.826;2023-01-25T00:51:00;103078.05;;;4.13;75.55
26436;BME280;15351;52.408;16.826;2023-01-25T00:53:27;103076.09;;;4.16;75.40
26436;BME280;15351;52.408;16.826;2023-01-25T00:55:54;103074.34;;;4.12;75.27
26436;BME280;15351;52.408;16.826;2023-01-25T00:58:22;103075.61;;;4.11;75.63
26436;BME280;15351;52.408;16.826;2023-01-25T01:00:48;103073.44;;;4.19;75.73
26436;BME280;15351;52.408;16.826;2023-01-25T01:03:15;103072.73;;;4.27;75.42
26436;BME280;15351;52.408;16.826;2023-01-25T01:05:41;103065.02;;;4.24;75.30
26436;BME280;15351;52.408;16.826;2023-01-25T01:08:10;103068.86;;;4.26;75.39
26436;BME280;15351;52.408;16.826;2023-01-25T01:10:38;103074.13;;;4.27;75.50
26436;BME280;15351;52.408;16.826;2023-01-25T01:13:05;103069.70;;;4.23;75.49
26436;BME280;15351;52.408;16.826;2023-01-25T01:15:36;103065.01;;;4.14;75.48
26436;BME280;15351;52.408;16.826;2023-01-25T01:18:03;103067.61;;;4.12;75.73
26436;BME280;15351;52.408;16.826;2023-01-25T01:20:30;103063.52;;;4.11;75.75
26436;BME280;15351;52.408;16.826;2023-01-25T01:22:57;103063.00;;;4.15;75.90
26436;BME280;15351;52.408;16.826;2023-01-25T01:25:24;103062.27;;;4.18;75.85
26436;BME280;15351;52.408;16.826;2023-01-25T01:27:57;103063.34;;;4.22;75.91
26436;BME280;15351;52.408;16.826;2023-01-25T01:30:23;103060.82;;;4.23;75.70
26436;BME280;15351;52.408;16.826;2023-01-25T01:32:50;103060.89;;;4.21;75.76
26436;BME280;15351;52.408;16.826;2023-01-25T01:35:18;103061.87;;;4.27;75.84
26436;BME280;15351;52.408;16.826;2023-01-25T01:37:44;103055.91;;;4.28;76.02
26436;BME280;15351;52.408;16.826;2023-01-25T01:40:14;103061.54;;;4.29;75.75
26436;BME280;15351;52.408;16.826;2023-01-25T01:43:04;103055.54;;;4.29;75.69
26436;BME280;15351;52.408;16.826;2023-01-25T01:50:45;103049.90;;;4.28;76.03
26436;BME280;15351;52.408;16.826;2023-01-25T01:53:13;103048.11;;;4.31;75.78
26436;BME280;15351;52.408;16.826;2023-01-25T01:55:40;103046.71;;;4.31;75.64
26436;BME280;15351;52.408;16.826;2023-01-25T01:58:06;103048.66;;;4.31;75.77
26436;BME280;15351;52.408;16.826;2023-01-25T02:00:36;103049.67;;;4.25;75.78
26436;BME280;15351;52.408;16.826;2023-01-25T02:03:04;103047.95;;;4.20;75.96
26436;BME280;15351;52.408;16.826;2023-01-25T02:08:19;103034.06;;;4.27;75.94
26436;BME280;15351;52.408;16.826;2023-01-25T02:10:48;103031.78;;;4.27;75.81
26436;BME280;15351;52.408;16.826;2023-01-25T02:13:17;103032.55;;;4.22;76.05
26436;BME280;15351;52.408;16.826;2023-01-25T02:15:47;103031.83;;;4.26;76.09
26436;BME280;15351;52.408;16.826;2023-01-25T02:18:16;103025.06;;;4.33;76.04
26436;BME280;15351;52.408;16.826;2023-01-25T02:20:47;103022.02;;;4.29;75.66
26436;BME280;15351;52.408;16.826;2023-01-25T02:23:28;103021.06;;;4.24;75.83
26436;BME280;15351;52.408;16.826;2023-01-25T02:26:02;103020.41;;;4.22;76.01
26436;BME280;15351;52.408;16.826;2023-01-25T02:28:30;103014.55;;;4.26;76.16
26436;BME280;15351;52.408;16.826;2023-01-25T02:31:00;103015.74;;;4.27;75.84
26436;BME280;15351;52.408;16.826;2023-01-25T02:33:27;103012.41;;;4.22;75.85
26436;BME280;15351;52.408;16.826;2023-01-25T02:38:34;103018.28;;;4.19;76.05
26436;BME280;15351;52.408;16.826;2023-01-25T02:41:12;103019.70;;;4.22;76.24
26436;BME280;15351;52.408;16.826;2023-01-25T02:43:41;103011.72;;;4.22;75.82
26436;BME280;15351;52.408;16.826;2023-01-25T02:46:15;103008.02;;;4.21;76.03
26436;BME280;15351;52.408;16.826;2023-01-25T02:48:44;103005.51;;;4.21;75.99
26436;BME280;15351;52.408;16.826;2023-01-25T02:51:10;103001.91;;;4.18;76.11
26436;BME280;15351;52.408;16.826;2023-01-25T02:53:38;103001.47;;;4.17;76.22
26436;BME280;15351;52.408;16.826;2023-01-25T02:56:04;102998.73;;;4.18;76.11
26436;BME280;15351;52.408;16.826;2023-01-25T02:58:31;102993.73;;;4.18;76.25
26436;BME280;15351;52.408;16.826;2023-01-25T03:00:58;102988.23;;;4.21;76.12
26436;BME280;15351;52.408;16.826;2023-01-25T03:03:25;102988.70;;;4.19;76.13
26436;BME280;15351;52.408;16.826;2023-01-25T03:05:53;102983.02;;;4.15;76.22
26436;BME280;15351;52.408;16.826;2023-01-25T03:08:19;102979.42;;;4.13;76.00
26436;BME280;15351;52.408;16.826;2023-01-25T03:10:47;102971.63;;;4.08;75.96
26436;BME280;15351;52.408;16.826;2023-01-25T03:13:14;102970.23;;;4.08;76.14
26436;BME280;15351;52.408;16.826;2023-01-25T03:15:41;102965.05;;;4.09;76.38
26436;BME280;15351;52.408;16.826;2023-01-25T03:18:08;102962.58;;;4.08;76.47
26436;BME280;15351;52.408;16.826;2023-01-25T03:20:35;102957.95;;;4.11;76.37
26436;BME280;15351;52.408;16.826;2023-01-25T03:23:01;102958.10;;;4.12;76.20
26436;BME280;15351;52.408;16.826;2023-01-25T03:25:28;102954.17;;;4.08;76.40
26436;BME280;15351;52.408;16.826;2023-01-25T03:28:00;102952.94;;;4.12;76.47
26436;BME280;15351;52.408;16.826;2023-01-25T03:30:26;102947.34;;;4.13;76.37
26436;BME280;15351;52.408;16.826;2023-01-25T03:32:53;102944.89;;;4.13;76.29
26436;BME280;15351;52.408;16.826;2023-01-25T03:35:19;102944.00;;;4.09;76.21
26436;BME280;15351;52.408;16.826;2023-01-25T03:37:46;102945.59;;;4.09;76.33
26436;BME280;15351;52.408;16.826;2023-01-25T03:40:12;102941.91;;;4.08;76.43
26436;BME280;15351;52.408;16.826;2023-01-25T03:42:43;102940.16;;;4.08;76.35
26436;BME280;15351;52.408;16.826;2023-01-25T03:45:11;102938.85;;;4.09;76.25
26436;BME280;15351;52.408;16.826;2023-01-25T03:47:42;102933.50;;;4.05;76.20
26436;BME280;15351;52.408;16.826;2023-01-25T03:50:09;102932.17;;;4.00;76.29
26436;BME280;15351;52.408;16.826;2023-01-25T03:52:36;102928.62;;;3.96;76.56
26436;BME280;15351;52.408;16.826;2023-01-25T03:55:06;102918.77;;;4.01;76.67
26436;BME280;15351;52.408;16.826;2023-01-25T03:57:34;102914.76;;;4.06;76.48
26436;BME280;15351;52.408;16.826;2023-01-25T04:00:02;102910.73;;;4.04;76.33
26436;BME280;15351;52.408;16.826;2023-01-25T04:02:30;102914.40;;;4.06;76.47
26436;BME280;15351;52.408;16.826;2023-01-25T04:04:59;102909.60;;;4.06;76.45
26436;BME280;15351;52.408;16.826;2023-01-25T04:07:26;102907.05;;;4.08;76.41
26436;BME280;15351;52.408;16.826;2023-01-25T04:09:52;102908.95;;;4.09;76.36
26436;BME280;15351;52.408;16.826;2023-01-25T04:12:18;102905.26;;;4.08;76.34
26436;BME280;15351;52.408;16.826;2023-01-25T04:14:45;102901.49;;;4.12;76.53
26436;BME280;15351;52.408;16.826;2023-01-25T04:17:18;102903.95;;;4.12;76.36
26436;BME280;15351;52.408;16.826;2023-01-25T04:19:53;102900.04;;;4.09;76.36
26436;BME280;15351;52.408;16.826;2023-01-25T04:22:22;102899.43;;;4.06;76.12
26436;BME280;15351;52.408;16.826;2023-01-25T04:24:50;102896.31;;;4.01;76.34
26436;BME280;15351;52.408;16.826;2023-01-25T04:27:17;102896.29;;;3.98;76.37
26436;BME280;15351;52.408;16.826;2023-01-25T04:30:14;102887.02;;;3.99;76.41
26436;BME280;15351;52.408;16.826;2023-01-25T04:32:43;102885.48;;;3.94;76.32
26436;BME280;15351;52.408;16.826;2023-01-25T04:35:29;102881.09;;;3.86;76.19
26436;BME280;15351;52.408;16.826;2023-01-25T04:37:58;102878.05;;;3.79;76.45
26436;BME280;15351;52.408;16.826;2023-01-25T04:40:32;102874.80;;;3.76;76.76
26436;BME280;15351;52.408;16.826;2023-01-25T04:42:58;102864.11;;;3.80;76.79
26436;BME280;15351;52.408;16.826;2023-01-25T04:45:26;102867.11;;;3.81;76.64
26436;BME280;15351;52.408;16.826;2023-01-25T04:47:58;102862.54;;;3.76;76.66
26436;BME280;15351;52.408;16.826;2023-01-25T04:50:25;102862.77;;;3.82;76.76
26436;BME280;15351;52.408;16.826;2023-01-25T04:53:03;102864.52;;;3.86;76.78
26436;BME280;15351;52.408;16.826;2023-01-25T04:55:30;102859.20;;;3.89;76.70
26436;BME280;15351;52.408;16.826;2023-01-25T04:57:57;102862.94;;;3.93;76.59
26436;BME280;15351;52.408;16.826;2023-01-25T05:00:24;102857.86;;;3.91;76.57
26436;BME280;15351;52.408;16.826;2023-01-25T05:02:51;102862.84;;;3.91;76.63
26436;BME280;15351;52.408;16.826;2023-01-25T05:05:18;102863.33;;;3.85;76.49
26436;BME280;15351;52.408;16.826;2023-01-25T05:07:44;102862.09;;;3.81;76.36
26436;BME280;15351;52.408;16.826;2023-01-25T05:10:11;102861.88;;;3.82;76.51
26436;BME280;15351;52.408;16.826;2023-01-25T05:12:42;102860.45;;;3.75;76.37
26436;BME280;15351;52.408;16.826;2023-01-25T05:15:09;102858.95;;;3.73;76.59
26436;BME280;15351;52.408;16.826;2023-01-25T05:17:35;102857.13;;;3.77;76.71
26436;BME280;15351;52.408;16.826;2023-01-25T05:20:02;102853.63;;;3.80;76.54
26436;BME280;15351;52.408;16.826;2023-01-25T05:22:28;102849.64;;;3.78;76.37
26436;BME280;15351;52.408;16.826;2023-01-25T05:24:56;102850.46;;;3.75;76.59
26436;BME280;15351;52.408;16.826;2023-01-25T05:27:28;102847.33;;;3.78;76.67
26436;BME280;15351;52.408;16.826;2023-01-25T05:29:57;102846.55;;;3.82;76.71
26436;BME280;15351;52.408;16.826;2023-01-25T05:32:47;102838.75;;;3.74;76.46
26436;BME280;15351;52.408;16.826;2023-01-25T05:35:16;102837.56;;;3.67;76.52
26436;BME280;15351;52.408;16.826;2023-01-25T05:37:44;102842.35;;;3.64;76.69
26436;BME280;15351;52.408;16.826;2023-01-25T05:40:20;102842.11;;;3.62;76.94
26436;BME280;15351;52.408;16.826;2023-01-25T05:42:55;102839.79;;;3.65;77.05
26436;BME280;15351;52.408;16.826;2023-01-25T05:45:25;102838.53;;;3.76;77.01
26436;BME280;15351;52.408;16.826;2023-01-25T05:47:54;102836.52;;;3.77;76.58
26436;BME280;15351;52.408;16.826;2023-01-25T05:50:23;102837.46;;;3.76;76.77
26436;BME280;15351;52.408;16.826;2023-01-25T05:53:14;102833.40;;;3.82;76.89
26436;BME280;15351;52.408;16.826;2023-01-25T05:55:41;102834.98;;;3.89;76.78
26436;BME280;15351;52.408;16.826;2023-01-25T05:58:14;102839.11;;;3.92;76.43
26436;BME280;15351;52.408;16.826;2023-01-25T06:00:40;102833.88;;;3.90;76.42
26436;BME280;15351;52.408;16.826;2023-01-25T06:03:08;102833.61;;;3.92;76.57
26436;BME280;15351;52.408;16.826;2023-01-25T06:05:36;102833.04;;;3.93;76.37
26436;BME280;15351;52.408;16.826;2023-01-25T06:08:03;102837.00;;;3.92;76.44
26436;BME280;15351;52.408;16.826;2023-01-25T06:10:40;102833.24;;;3.88;76.45
26436;BME280;15351;52.408;16.826;2023-01-25T06:13:14;102831.02;;;3.83;76.31
26436;BME280;15351;52.408;16.826;2023-01-25T06:15:42;102833.33;;;3.84;76.54
26436;BME280;15351;52.408;16.826;2023-01-25T06:18:51;102828.11;;;3.88;76.72
26436;BME280;15351;52.408;16.826;2023-01-25T06:21:42;102831.34;;;3.91;76.46
26436;BME280;15351;52.408;16.826;2023-01-25T06:24:09;102834.59;;;3.94;76.32
26436;BME280;15351;52.408;16.826;2023-01-25T06:26:35;102834.30;;;3.96;76.38
26436;BME280;15351;52.408;16.826;2023-01-25T06:29:05;102830.71;;;3.96;76.54
26436;BME280;15351;52.408;16.826;2023-01-25T06:31:32;102825.44;;;3.92;76.26
26436;BME280;15351;52.408;16.826;2023-01-25T06:34:01;102823.55;;;3.80;76.07
26436;BME280;15351;52.408;16.826;2023-01-25T06:36:32;102831.76;;;3.72;76.10
26436;BME280;15351;52.408;16.826;2023-01-25T06:38:58;102831.35;;;3.67;76.42
26436;BME280;15351;52.408;16.826;2023-01-25T06:41:28;102826.89;;;3.70;76.74
26436;BME280;15351;52.408;16.826;2023-01-25T06:43:56;102826.72;;;3.77;76.79
26436;BME280;15351;52.408;16.826;2023-01-25T06:46:31;102826.48;;;3.82;76.67
26436;BME280;15351;52.408;16.826;2023-01-25T06:49:02;102827.48;;;3.83;76.56
26436;BME280;15351;52.408;16.826;2023-01-25T06:51:28;102826.65;;;3.82;76.48
26436;BME280;15351;52.408;16.826;2023-01-25T06:53:55;102827.54;;;3.85;76.63
26436;BME280;15351;52.408;16.826;2023-01-25T06:56:23;102826.27;;;3.93;76.45
26436;BME280;15351;52.408;16.826;2023-01-25T06:58:49;102826.45;;;3.93;76.15
26436;BME280;15351;52.408;16.826;2023-01-25T07:03:51;102824.41;;;3.70;75.79
26436;BME280;15351;52.408;16.826;2023-01-25T07:06:18;102824.17;;;3.57;76.05
26436;BME280;15351;52.408;16.826;2023-01-25T07:08:46;102825.90;;;3.48;76.19
26436;BME280;15351;52.408;16.826;2023-01-25T07:11:15;102820.95;;;3.47;76.60
26436;BME280;15351;52.408;16.826;2023-01-25T07:13:45;102815.02;;;3.52;76.69
26436;BME280;15351;52.408;16.826;2023-01-25T07:16:14;102815.19;;;3.55;76.84
26436;BME280;15351;52.408;16.826;2023-01-25T07:18:41;102808.20;;;3.60;77.12
26436;BME280;15351;52.408;16.826;2023-01-25T07:21:18;102807.90;;;3.63;76.95
26436;BME280;15351;52.408;16.826;2023-01-25T07:23:47;102808.74;;;3.64;76.81
26436;BME280;15351;52.408;16.826;2023-01-25T07:28:44;102805.61;;;3.62;76.85
26436;BME280;15351;52.408;16.826;2023-01-25T07:31:11;102806.56;;;3.64;77.06
26436;BME280;15351;52.408;16.826;2023-01-25T07:33:39;102805.93;;;3.73;77.02
26436;BME280;15351;52.408;16.826;2023-01-25T07:36:08;102801.50;;;3.76;76.83
26436;BME280;15351;52.408;16.826;2023-01-25T07:38:35;102803.71;;;3.78;76.80
26436;BME280;15351;52.408;16.826;2023-01-25T07:41:02;102799.77;;;3.82;76.99
26436;BME280;15351;52.408;16.826;2023-01-25T07:43:29;102801.46;;;3.87;76.84
26436;BME280;15351;52.408;16.826;2023-01-25T07:46:02;102794.27;;;3.88;76.69
26436;BME280;15351;52.408;16.826;2023-01-25T07:48:29;102787.77;;;3.83;76.53
26436;BME280;15351;52.408;16.826;2023-01-25T07:50:59;102793.79;;;3.77;76.56
26436;BME280;15351;52.408;16.826;2023-01-25T07:53:42;102789.83;;;3.74;76.59
26436;BME280;15351;52.408;16.826;2023-01-25T07:56:10;102787.81;;;3.76;76.82
26436;BME280;15351;52.408;16.826;2023-01-25T07:58:38;102782.68;;;3.75;76.56
26436;BME280;15351;52.408;16.826;2023-01-25T08:01:13;102776.19;;;3.70;76.28
26436;BME280;15351;52.408;16.826;2023-01-25T08:03:40;102769.50;;;3.65;76.52
26436;BME280;15351;52.408;16.826;2023-01-25T08:06:07;102762.48;;;3.64;76.69
26436;BME280;15351;52.408;16.826;2023-01-25T08:08:45;102768.49;;;3.64;76.71
26436;BME280;15351;52.408;16.826;2023-01-25T08:11:14;102762.69;;;3.67;76.94
26436;BME280;15351;52.408;16.826;2023-01-25T08:13:42;102763.44;;;3.72;76.94
26436;BME280;15351;52.408;16.826;2023-01-25T08:16:12;102760.96;;;3.79;76.97
26436;BME280;15351;52.408;16.826;2023-01-25T08:18:39;102759.48;;;3.84;76.97
26436;BME280;15351;52.408;16.826;2023-01-25T08:21:08;102766.40;;;3.87;76.81
26436;BME280;15351;52.408;16.826;2023-01-25T08:23:35;102764.48;;;3.90;76.66
26436;BME280;15351;52.408;16.826;2023-01-25T08:26:03;102767.34;;;3.89;76.35
26436;BME280;15351;52.408;16.826;2023-01-25T08:28:30;102763.78;;;3.83;76.23
26436;BME280;15351;52.408;16.826;2023-01-25T08:31:11;102758.01;;;3.78;76.23
26436;BME280;15351;52.408;16.826;2023-01-25T08:33:42;102755.94;;;3.80;76.34
26436;BME280;15351;52.408;16.826;2023-01-25T08:36:12;102750.99;;;3.79;76.06
26436;BME280;15351;52.408;16.826;2023-01-25T08:38:39;102752.41;;;3.76;76.00
26436;BME280;15351;52.408;16.826;2023-01-25T08:41:08;102751.29;;;3.73;76.22
26436;BME280;15351;52.408;16.826;2023-01-25T08:43:37;102747.92;;;3.70;76.47
26436;BME280;15351;52.408;16.826;2023-01-25T08:46:04;102746.59;;;3.75;76.65
26436;BME280;15351;52.408;16.826;2023-01-25T08:48:32;102746.55;;;3.82;76.67
26436;BME280;15351;52.408;16.826;2023-01-25T08:51:03;102741.09;;;3.84;76.56
26436;BME280;15351;52.408;16.826;2023-01-25T08:53:31;102742.02;;;3.77;76.50
26436;BME280;15351;52.408;16.826;2023-01-25T08:56:17;102738.55;;;3.75;76.64
26436;BME280;15351;52.408;16.826;2023-01-25T08:58:46;102734.73;;;3.81;76.80
26436;BME280;15351;52.408;16.826;2023-01-25T09:01:17;102726.39;;;3.90;76.91
26436;BME280;15351;52.408;16.826;2023-01-25T09:03:46;102721.61;;;3.93;76.69
26436;BME280;15351;52.408;16.826;2023-01-25T09:06:13;102716.13;;;3.89;76.59
26436;BME280;15351;52.408;16.826;2023-01-25T09:08:43;102711.47;;;3.83;76.54
26436;BME280;15351;52.408;16.826;2023-01-25T09:11:14;102709.95;;;3.81;76.56
26436;BME280;15351;52.408;16.826;2023-01-25T09:13:41;102707.55;;;3.86;76.62
26436;BME280;15351;52.408;16.826;2023-01-25T09:16:13;102708.93;;;3.87;76.55
26436;BME280;15351;52.408;16.826;2023-01-25T09:18:42;102709.27;;;3.91;76.70
26436;BME280;15351;52.408;16.826;2023-01-25T09:21:15;102708.76;;;3.94;76.83
26436;BME280;15351;52.408;16.826;2023-01-25T09:23:42;102708.26;;;4.00;76.59
26436;BME280;15351;52.408;16.826;2023-01-25T09:26:17;102711.55;;;4.08;76.41
26436;BME280;15351;52.408;16.826;2023-01-25T09:28:49;102710.16;;;4.11;76.43
26436;BME280;15351;52.408;16.826;2023-01-25T09:31:17;102710.46;;;4.15;76.49
26436;BME280;15351;52.408;16.826;2023-01-25T09:34:22;102703.95;;;4.17;76.45
26436;BME280;15351;52.408;16.826;2023-01-25T09:36:49;102703.58;;;4.20;76.26
26436;BME280;15351;52.408;16.826;2023-01-25T09:39:16;102704.70;;;4.16;76.00
26436;BME280;15351;52.408;16.826;2023-01-25T09:55:25;102696.01;;;3.72;76.68
26436;BME280;15351;52.408;16.826;2023-01-25T09:57:54;102687.52;;;3.82;76.83
26436;BME280;15351;52.408;16.826;2023-01-25T10:00:32;102680.79;;;3.87;76.64
26436;BME280;15351;52.408;16.826;2023-01-25T10:08:29;102673.04;;;3.86;76.47
26436;BME280;15351;52.408;16.826;2023-01-25T10:11:27;102672.16;;;3.83;76.32
26436;BME280;15351;52.408;16.826;2023-01-25T10:13:58;102669.17;;;3.72;76.22
26436;BME280;15351;52.408;16.826;2023-01-25T10:16:48;102664.48;;;3.70;76.49
26436;BME280;15351;52.408;16.826;2023-01-25T10:21:57;102658.08;;;3.57;76.48
26436;BME280;15351;52.408;16.826;2023-01-25T10:24:59;102656.64;;;3.53;76.60
26436;BME280;15351;52.408;16.826;2023-01-25T10:28:04;102655.98;;;3.56;76.73
26436;BME280;15351;52.408;16.826;2023-01-25T10:30:40;102648.85;;;3.69;77.06
26436;BME280;15351;52.408;16.826;2023-01-25T10:33:17;102648.64;;;3.80;77.04
26436;BME280;15351;52.408;16.826;2023-01-25T10:35:48;102647.29;;;3.85;76.94
26436;BME280;15351;52.408;16.826;2023-01-25T10:38:29;102644.09;;;3.88;76.68
26436;BME280;15351;52.408;16.826;2023-01-25T10:41:34;102646.52;;;3.89;76.76
26436;BME280;15351;52.408;16.826;2023-01-25T10:44:02;102638.35;;;3.86;76.57
26436;BME280;15351;52.408;16.826;2023-01-25T10:47:14;102636.16;;;3.80;76.59
26436;BME280;15351;52.408;16.826;2023-01-25T10:49:46;102631.00;;;3.80;76.55
26436;BME280;15351;52.408;16.826;2023-01-25T10:52:21;102630.20;;;3.75;76.45
26436;BME280;15351;52.408;16.826;2023-01-25T10:57:47;102629.26;;;3.80;77.11
26436;BME280;15351;52.408;16.826;2023-01-25T11:02:47;102618.42;;;3.96;76.65
26436;BME280;15351;52.408;16.826;2023-01-25T11:07:46;102605.34;;;3.91;76.52
26436;BME280;15351;52.408;16.826;2023-01-25T11:10:44;102596.89;;;3.86;76.41
26436;BME280;15351;52.408;16.826;2023-01-25T11:18:22;102581.90;;;3.96;76.61
26436;BME280;15351;52.408;16.826;2023-01-25T11:23:32;102569.64;;;3.99;76.48
26436;BME280;15351;52.408;16.826;2023-01-25T11:26:18;102568.84;;;3.97;76.31
26436;BME280;15351;52.408;16.826;2023-01-25T11:28:45;102566.36;;;3.97;76.28
26436;BME280;15351;52.408;16.826;2023-01-25T11:31:18;102560.41;;;3.92;76.23
26436;BME280;15351;52.408;16.826;2023-01-25T11:33:45;102553.84;;;3.89;76.38
26436;BME280;15351;52.408;16.826;2023-01-25T11:36:30;102554.14;;;3.93;76.63
26436;BME280;15351;52.408;16.826;2023-01-25T11:50:15;102535.94;;;4.00;77.03
26436;BME280;15351;52.408;16.826;2023-01-25T12:00:52;102514.99;;;4.24;76.67
26436;BME280;15351;52.408;16.826;2023-01-25T12:09:03;102499.68;;;4.02;75.92
26436;BME280;15351;52.408;16.826;2023-01-25T12:22:44;102471.05;;;4.12;76.64
26436;BME280;15351;52.408;16.826;2023-01-25T12:30:54;102450.73;;;4.20;76.26
26436;BME280;15351;52.408;16.826;2023-01-25T12:33:37;102449.27;;;4.24;76.30
26436;BME280;15351;52.408;16.826;2023-01-25T12:36:33;102440.55;;;4.27;76.36
26436;BME280;15351;52.408;16.826;2023-01-25T12:39:24;102438.61;;;4.27;76.10
26436;BME280;15351;52.408;16.826;2023-01-25T12:42:06;102433.39;;;4.28;75.88
26436;BME280;15351;52.408;16.826;2023-01-25T12:44:44;102425.85;;;4.29;76.22
26436;BME280;15351;52.408;16.826;2023-01-25T12:47:34;102420.20;;;4.28;76.07
26436;BME280;15351;52.408;16.826;2023-01-25T12:52:54;102410.18;;;4.02;75.83
26436;BME280;15351;52.408;16.826;2023-01-25T12:55:27;102409.58;;;3.94;75.81
26436;BME280;15351;52.408;16.826;2023-01-25T13:03:34;102393.95;;;3.94;76.65
26436;BME280;15351;52.408;16.826;2023-01-25T13:11:37;102383.89;;;3.93;76.53
26436;BME280;15351;52.408;16.826;2023-01-25T13:14:28;102384.67;;;3.91;76.56
26436;BME280;15351;52.408;16.826;2023-01-25T13:19:58;102381.91;;;3.86;76.39
26436;BME280;15351;52.408;16.826;2023-01-25T13:25:23;102378.27;;;3.79;76.84
26436;BME280;15351;52.408;16.826;2023-01-25T13:28:55;102373.25;;;3.76;76.89
26436;BME280;15351;52.408;16.826;2023-01-25T13:31:02;102368.48;;;3.79;76.76
26436;BME280;15351;52.408;16.826;2023-01-25T13:33:33;102366.39;;;3.78;76.98
26436;BME280;15351;52.408;16.826;2023-01-25T13:44:41;102342.82;;;4.06;76.60
26436;BME280;15351;52.408;16.826;2023-01-25T13:47:11;102335.61;;;4.02;76.62
26436;BME280;15351;52.408;16.826;2023-01-25T13:52:18;102328.23;;;4.00;76.72
26436;BME280;15351;52.408;16.826;2023-01-25T13:54:57;102322.84;;;4.01;76.52
26436;BME280;15351;52.408;16.826;2023-01-25T13:57:45;102325.98;;;3.93;76.50
26436;BME280;15351;52.408;16.826;2023-01-25T14:00:15;102328.36;;;3.89;76.48
26436;BME280;15351;52.408;16.826;2023-01-25T14:02:43;102324.73;;;3.91;76.69
26436;BME280;15351;52.408;16.826;2023-01-25T14:05:20;102322.23;;;3.91;76.60
26436;BME280;15351;52.408;16.826;2023-01-25T14:07:50;102318.75;;;3.93;76.53
26436;BME280;15351;52.408;16.826;2023-01-25T14:10:20;102314.42;;;3.90;76.73
26436;BME280;15351;52.408;16.826;2023-01-25T14:12:50;102308.49;;;3.91;76.83
26436;BME280;15351;52.408;16.826;2023-01-25T14:15:25;102301.57;;;3.97;77.10
26436;BME280;15351;52.408;16.826;2023-01-25T14:18:12;102300.27;;;4.03;77.10
26436;BME280;15351;52.408;16.826;2023-01-25T14:20:41;102303.15;;;4.09;76.85
26436;BME280;15351;52.408;16.826;2023-01-25T14:23:25;102300.68;;;4.11;76.85
26436;BME280;15351;52.408;16.826;2023-01-25T14:25:53;102296.03;;;4.09;76.66
26436;BME280;15351;52.408;16.826;2023-01-25T14:28:20;102288.55;;;4.03;76.58
26436;BME280;15351;52.408;16.826;2023-01-25T14:30:53;102279.00;;;3.94;76.51
26436;BME280;15351;52.408;16.826;2023-01-25T14:33:26;102275.79;;;3.91;76.58
26436;BME280;15351;52.408;16.826;2023-01-25T14:35:54;102275.65;;;3.90;76.97
26436;BME280;15351;52.408;16.826;2023-01-25T14:38:33;102273.48;;;3.94;77.15
26436;BME280;15351;52.408;16.826;2023-01-25T14:43:35;102268.64;;;4.00;76.92
26436;BME280;15351;52.408;16.826;2023-01-25T14:46:34;102260.17;;;3.96;76.91
26436;BME280;15351;52.408;16.826;2023-01-25T14:52:09;102254.29;;;3.93;77.07
26436;BME280;15351;52.408;16.826;2023-01-25T14:54:53;102250.31;;;3.97;77.09
26436;BME280;15351;52.408;16.826;2023-01-25T14:57:33;102250.83;;;4.00;77.11
26436;BME280;15351;52.408;16.826;2023-01-25T15:00:03;102246.95;;;3.99;77.04
26436;BME280;15351;52.408;16.826;2023-01-25T15:02:43;102246.17;;;4.00;77.17
26436;BME280;15351;52.408;16.826;2023-01-25T15:05:24;102244.91;;;4.04;77.03
26436;BME280;15351;52.408;16.826;2023-01-25T15:07:55;102236.75;;;4.06;76.91
26436;BME280;15351;52.408;16.826;2023-01-25T15:10:25;102228.34;;;3.98;76.91
26436;BME280;15351;52.408;16.826;2023-01-25T15:12:58;102230.58;;;3.94;76.99
26436;BME280;15351;52.408;16.826;2023-01-25T15:15:27;102229.55;;;3.94;77.13
26436;BME280;15351;52.408;16.826;2023-01-25T15:17:56;102221.14;;;3.94;77.15
26436;BME280;15351;52.408;16.826;2023-01-25T15:20:26;102221.12;;;3.88;77.18
26436;BME280;15351;52.408;16.826;2023-01-25T15:22:58;102217.76;;;3.88;77.27
26436;BME280;15351;52.408;16.826;2023-01-25T15:25:25;102213.20;;;3.90;77.40